Time;durP1;ratioP1;P1;durP2;ratioP2;P2;SDS_P1;SDS_P2;PMS_P1;PMS_P2;Temp;Humidity;BMP_temperature;BMP_pressure;BME280_temperature;BME280_humidity;BME280_pressure;Samples;Min_cycle;Max_cycle;Signal;HPM_P1;HPM_P2
2021/01/04 00:01:34;;;;;;;25.10;10.57;;;7.10;85.80;;;;;;5036277;28;20033;-52
2021/01/04 00:04:18;;;;;;;24.85;11.55;;;7.10;85.80;;;;;;5036088;28;20459;-51
2021/01/04 00:07:13;;;;;;;32.65;10.85;;;7.10;85.80;;;;;;5024038;28;20485;-51
2021/01/04 00:10:00;;;;;;;24.08;9.93;;;7.10;85.80;;;;;;5018454;28;20452;-51
2021/01/04 00:12:36;;;;;;;24.48;10.52;;;7.10;85.90;;;;;;5035402;28;20036;-52
2021/01/04 00:15:09;;;;;;;25.83;11.90;;;7.10;85.80;;;;;;5036275;28;20032;-52
2021/01/04 00:17:53;;;;;;;25.48;11.50;;;7.10;85.80;;;;;;5036382;28;20055;-52
2021/01/04 00:20:48;;;;;;;21.77;10.13;;;7.10;85.80;;;;;;5026701;28;20475;-51
2021/01/04 00:23:51;;;;;;;25.85;11.07;;;7.10;85.90;;;;;;5016355;28;20042;-52
2021/01/04 00:26:35;;;;;;;25.35;10.48;;;7.10;85.90;;;;;;5016587;28;20033;-51
2021/01/04 00:29:01;;;;;;;28.92;11.18;;;7.10;85.90;;;;;;5016487;28;20057;-51
2021/01/04 00:31:31;;;;;;;25.45;11.68;;;7.10;86.00;;;;;;5016304;28;20101;-52
2021/01/04 00:34:15;;;;;;;26.90;11.57;;;7.10;86.00;;;;;;5016579;28;20486;-51
2021/01/04 00:37:08;;;;;;;26.02;10.60;;;7.10;85.90;;;;;;5015863;28;20034;-52
2021/01/04 00:39:46;;;;;;;25.13;12.30;;;7.10;85.90;;;;;;5019510;28;20026;-52
2021/01/04 00:42:30;;;;;;;29.58;11.93;;;7.10;86.00;;;;;;5035562;28;20037;-51
2021/01/04 00:45:05;;;;;;;20.77;9.68;;;7.10;85.90;;;;;;5035795;28;20032;-51
2021/01/04 00:47:46;;;;;;;22.50;10.88;;;7.10;85.90;;;;;;5032919;28;20100;-52
2021/01/04 00:50:32;;;;;;;21.50;9.45;;;7.10;85.90;;;;;;5016085;28;20445;-51
2021/01/04 00:53:06;;;;;;;24.65;10.18;;;7.10;86.00;;;;;;5020488;28;20100;-51
2021/01/04 00:55:52;;;;;;;27.38;10.95;;;7.10;85.90;;;;;;5034961;28;20132;-52
2021/01/04 00:58:26;;;;;;;20.15;10.20;;;7.10;85.90;;;;;;5035612;28;20021;-52
2021/01/04 01:01:23;;;;;;;21.45;9.77;;;7.10;85.90;;;;;;5035807;28;20426;-52
2021/01/04 01:03:57;;;;;;;22.95;9.30;;;7.10;86.00;;;;;;5027535;28;20056;-51
2021/01/04 01:06:54;;;;;;;25.25;10.68;;;7.10;85.90;;;;;;5025339;28;20030;-51
2021/01/04 01:09:20;;;;;;;28.85;10.20;;;7.10;85.90;;;;;;5034815;28;20025;-51
2021/01/04 01:12:07;;;;;;;26.60;10.70;;;7.10;86.00;;;;;;5015617;28;20042;-52
2021/01/04 01:14:57;;;;;;;28.75;11.50;;;7.10;85.90;;;;;;5015681;28;20018;-51
2021/01/04 01:17:38;;;;;;;25.88;11.00;;;7.10;85.90;;;;;;5033388;28;20038;-51
2021/01/04 01:20:06;;;;;;;25.17;10.55;;;7.10;85.90;;;;;;5035282;28;20021;-51
2021/01/04 01:22:39;;;;;;;27.73;10.38;;;7.10;86.00;;;;;;5028305;28;20026;-52
2021/01/04 01:25:12;;;;;;;26.35;10.80;;;7.10;86.00;;;;;;5029360;28;20053;-52
2021/01/04 01:27:56;;;;;;;26.88;11.32;;;7.10;86.00;;;;;;5034769;28;20370;-52
2021/01/04 01:30:34;;;;;;;24.05;10.63;;;7.10;86.00;;;;;;5035036;28;20025;-52
2021/01/04 01:33:24;;;;;;;24.50;10.85;;;7.10;86.00;;;;;;5020953;28;20026;-51
2021/01/04 01:36:22;;;;;;;25.08;10.98;;;7.10;86.00;;;;;;5015290;28;20040;-51
2021/01/04 01:39:11;;;;;;;27.05;11.57;;;7.10;86.00;;;;;;5015025;28;20080;-52
2021/01/04 01:42:12;;;;;;;18.15;9.63;;;7.10;86.10;;;;;;5029204;28;20057;-52
2021/01/04 01:44:48;;;;;;;;;;;7.10;86.10;;;;;;5022974;28;20478;-51
2021/01/04 01:47:41;;;;;;;23.90;9.80;;;7.10;86.00;;;;;;5014977;28;19912;-51
2021/01/04 01:50:26;;;;;;;23.52;10.27;;;7.10;86.10;;;;;;5014472;28;20030;-52
2021/01/04 01:53:17;;;;;;;26.10;10.35;;;7.10;86.10;;;;;;5018670;28;20018;-51
2021/01/04 01:56:15;;;;;;;24.65;11.23;;;7.10;86.00;;;;;;5027115;28;20478;-51
2021/01/04 01:59:07;;;;;;;23.23;10.23;;;7.10;86.10;;;;;;5015606;28;20030;-52
2021/01/04 02:01:36;;;;;;;28.73;10.40;;;7.10;86.10;;;;;;5038189;28;20021;-51
2021/01/04 02:04:08;;;;;;;24.48;10.68;;;7.10;86.10;;;;;;5050389;28;20029;-52
2021/01/04 02:07:01;;;;;;;25.38;10.90;;;7.10;86.10;;;;;;5024433;28;20029;-52
2021/01/04 02:09:31;;;;;;;23.20;10.43;;;7.10;86.00;;;;;;5014638;28;20088;-52
2021/01/04 02:12:10;;;;;;;36.40;9.63;;;7.10;86.00;;;;;;5033232;28;20057;-51
2021/01/04 02:14:54;;;;;;;18.98;8.98;;;7.10;86.10;;;;;;5033930;28;20034;-52
2021/01/04 02:17:32;;;;;;;22.20;11.00;;;7.10;86.10;;;;;;5034233;28;20021;-51
2021/01/04 02:20:00;;;;;;;22.83;10.80;;;7.10;86.10;;;;;;5023292;28;20066;-52
2021/01/04 02:22:44;;;;;;;32.38;11.50;;;7.10;86.10;;;;;;5013742;28;20048;-51
2021/01/04 02:25:10;;;;;;;29.92;12.48;;;7.10;86.10;;;;;;5028862;28;20529;-51
2021/01/04 02:27:43;;;;;;;28.40;10.68;;;7.10;86.10;;;;;;5033937;28;20025;-52
2021/01/04 02:30:10;;;;;;;25.75;11.88;;;7.10;86.10;;;;;;5034167;28;20109;-52
2021/01/04 02:32:36;;;;;;;28.55;11.70;;;7.00;86.60;;;;;;5023984;28;20085;-52
2021/01/04 02:35:03;;;;;;;28.60;10.93;;;7.10;86.10;;;;;;5014250;28;20455;-52
2021/01/04 02:37:28;;;;;;;24.73;10.80;;;7.00;86.00;;;;;;5013743;28;20057;-52
2021/01/04 02:39:57;;;;;;;26.52;11.05;;;7.10;86.10;;;;;;5020282;28;20407;-52
2021/01/04 02:42:36;;;;;;;34.83;11.90;;;7.10;86.10;;;;;;5023922;28;20040;-51
2021/01/04 02:45:08;;;;;;;23.50;10.25;;;7.10;86.10;;;;;;5014584;28;20410;-52
2021/01/04 02:47:53;;;;;;;27.45;11.20;;;7.00;86.00;;;;;;5023222;28;20041;-51
2021/01/04 02:50:43;;;;;;;25.25;10.48;;;7.00;86.10;;;;;;5033332;28;20100;-51
2021/01/04 02:53:40;;;;;;;30.63;12.38;;;7.00;86.00;;;;;;5033318;28;20356;-52
2021/01/04 02:56:23;;;;;;;26.77;10.93;;;7.00;86.10;;;;;;5033276;28;20121;-51
2021/01/04 02:59:16;;;;;;;25.13;10.20;;;7.00;86.10;;;;;;5033434;28;20044;-51
2021/01/04 03:02:06;;;;;;;24.92;10.13;;;7.00;86.10;;;;;;5032356;28;20049;-51
2021/01/04 03:04:35;;;;;;;23.80;11.02;;;7.00;86.20;;;;;;5032457;28;20033;-52
2021/01/04 03:07:03;;;;;;;24.15;10.50;;;7.00;86.10;;;;;;5018847;28;20034;-51
2021/01/04 03:09:31;;;;;;;27.65;10.80;;;7.00;86.10;;;;;;5025759;28;20520;-51
2021/01/04 03:12:00;;;;;;;32.00;10.77;;;7.00;86.00;;;;;;5012457;28;20340;-51
2021/01/04 03:14:46;;;;;;;23.67;9.50;;;7.00;86.00;;;;;;5014612;28;20084;-52
2021/01/04 03:18:06;;;;;;;29.63;10.55;;;7.00;86.10;;;;;;5032695;28;20486;-51
2021/01/04 03:20:34;;;;;;;23.45;10.63;;;7.00;86.10;;;;;;5030658;28;20025;-52
2021/01/04 03:22:59;;;;;;;30.27;10.55;;;7.00;86.10;;;;;;5030286;28;20038;-52
2021/01/04 03:25:28;;;;;;;27.27;10.85;;;7.00;86.00;;;;;;5020699;28;20038;-51
2021/01/04 03:27:54;;;;;;;31.30;11.10;;;7.00;86.10;;;;;;5013641;28;20027;-51
2021/01/04 03:30:20;;;;;;;31.33;11.07;;;7.00;86.10;;;;;;5013211;28;20029;-51
2021/01/04 03:32:46;;;;;;;26.10;10.90;;;7.00;86.10;;;;;;5013056;28;20018;-51
2021/01/04 03:35:12;;;;;;;25.40;11.35;;;7.00;86.00;;;;;;5013814;28;20030;-52
2021/01/04 03:37:37;;;;;;;34.03;11.32;;;7.00;86.00;;;;;;5032792;28;20467;-51
2021/01/04 03:40:05;;;;;;;31.27;11.60;;;7.10;86.20;;;;;;5032805;28;20048;-51
2021/01/04 03:42:31;;;;;;;25.92;10.32;;;7.00;86.10;;;;;;5032787;28;20052;-51
2021/01/04 03:44:57;;;;;;;26.80;10.05;;;7.00;86.20;;;;;;5033422;28;20401;-52
2021/01/04 03:47:22;;;;;;;28.13;11.68;;;7.00;86.20;;;;;;5014226;28;20053;-51
2021/01/04 03:49:48;;;;;;;24.92;10.02;;;7.00;86.20;;;;;;5013584;28;20076;-51
2021/01/04 03:52:14;;;;;;;22.67;9.07;;;7.10;86.20;;;;;;5013175;28;20041;-52
2021/01/04 03:54:42;;;;;;;22.25;9.40;;;7.00;86.10;;;;;;5031894;28;20351;-51
2021/01/04 03:57:08;;;;;;;23.50;9.85;;;7.00;86.20;;;;;;5032427;28;20034;-52
2021/01/04 03:59:33;;;;;;;22.63;10.05;;;7.00;86.20;;;;;;5032819;28;20045;-52
2021/01/04 04:01:59;;;;;;;26.45;11.13;;;7.00;86.20;;;;;;5031936;28;20080;-52
2021/01/04 04:04:25;;;;;;;30.50;11.80;;;7.00;86.20;;;;;;5021516;28;20026;-52
2021/01/04 04:06:51;;;;;;;27.48;10.63;;;7.00;86.10;;;;;;5024074;28;20030;-52
2021/01/04 04:09:20;;;;;;;27.60;10.60;;;7.00;86.10;;;;;;5012606;28;20080;-51
2021/01/04 04:11:46;;;;;;;25.90;11.05;;;7.00;86.10;;;;;;5032005;28;20038;-52
2021/01/04 04:14:12;;;;;;;24.90;11.38;;;7.00;86.10;;;;;;5032119;28;20058;-51
2021/01/04 04:16:38;;;;;;;27.17;10.63;;;7.00;86.10;;;;;;5032905;28;20040;-51
2021/01/04 04:19:05;;;;;;;30.58;11.98;;;7.00;86.10;;;;;;5032493;28;20029;-51
2021/01/04 04:21:30;;;;;;;31.23;10.88;;;7.00;86.10;;;;;;5032256;28;20044;-51
2021/01/04 04:23:56;;;;;;;33.17;10.93;;;7.00;86.10;;;;;;5027799;28;20362;-52
2021/01/04 04:26:24;;;;;;;29.23;11.90;;;7.00;86.10;;;;;;5036254;28;20213;-52
2021/01/04 04:28:51;;;;;;;23.77;10.85;;;7.00;86.00;;;;;;5036229;28;20030;-51
2021/01/04 04:31:17;;;;;;;28.15;11.95;;;7.00;86.00;;;;;;5026033;28;20030;-52
2021/01/04 04:33:44;;;;;;;31.20;12.13;;;7.00;86.00;;;;;;5016455;28;20030;-51
2021/01/04 04:36:15;;;;;;;31.88;11.27;;;7.00;86.00;;;;;;5016018;28;20038;-52
2021/01/04 04:38:41;;;;;;;25.27;10.48;;;7.00;86.00;;;;;;5016389;28;20030;-52
2021/01/04 04:41:08;;;;;;;29.40;11.07;;;7.00;86.00;;;;;;5023278;28;20029;-52
2021/01/04 04:43:42;;;;;;;27.60;12.15;;;7.00;86.00;;;;;;5036169;28;20032;-51
2021/01/04 04:46:17;;;;;;;24.80;10.68;;;7.00;86.10;;;;;;5035510;28;20419;-51
2021/01/04 04:48:53;;;;;;;28.42;10.85;;;7.00;86.10;;;;;;5035717;28;20463;-51
2021/01/04 04:51:40;;;;;;;22.35;10.10;;;7.00;86.10;;;;;;5026322;28;20037;-51
2021/01/04 04:54:24;;;;;;;29.42;11.73;;;7.00;86.10;;;;;;5030376;28;20049;-52
2021/01/04 04:57:20;;;;;;;29.88;11.63;;;7.00;86.00;;;;;;5035784;28;20455;-52
2021/01/04 05:00:08;;;;;;;27.05;11.15;;;7.10;86.00;;;;;;5022629;28;20103;-51
2021/01/04 05:02:48;;;;;;;24.73;9.52;;;7.10;85.90;;;;;;5025277;28;20064;-52
2021/01/04 05:05:14;;;;;;;;;;;7.10;85.80;;;;;;5033721;28;20017;-52
2021/01/04 05:08:11;;;;;;;27.50;10.70;;;7.10;85.80;;;;;;5035224;28;19911;-52
2021/01/04 05:10:41;;;;;;;25.95;10.35;;;7.10;85.80;;;;;;5029406;28;20026;-52
2021/01/04 05:13:27;;;;;;;24.00;10.65;;;7.10;85.80;;;;;;5035075;28;20033;-52
2021/01/04 05:16:02;;;;;;;32.92;11.73;;;7.10;85.80;;;;;;5035098;28;20454;-52
2021/01/04 05:18:46;;;;;;;22.85;10.55;;;7.10;85.80;;;;;;5033985;28;20332;-52
2021/01/04 05:21:49;;;;;;;27.73;10.95;;;7.10;85.80;;;;;;5030414;28;20511;-52
2021/01/04 05:24:58;;;;;;;22.63;10.38;;;7.10;85.80;;;;;;5033467;28;20032;-52
2021/01/04 05:27:46;;;;;;;34.38;11.77;;;7.10;85.70;;;;;;5048522;28;20077;-52
2021/01/04 05:30:11;;;;;;;27.73;11.30;;;7.10;85.70;;;;;;5032509;28;20447;-52
2021/01/04 05:33:11;;;;;;;24.23;10.43;;;7.10;85.70;;;;;;5024472;28;20017;-52
2021/01/04 05:35:38;;;;;;;22.98;9.10;;;7.10;85.70;;;;;;5026657;28;20018;-52
2021/01/04 05:38:34;;;;;;;27.77;10.25;;;7.10;85.70;;;;;;5034782;28;20065;-52
2021/01/04 05:41:18;;;;;;;26.30;10.60;;;7.10;85.70;;;;;;5034984;28;20090;-52
2021/01/04 05:44:02;;;;;;;29.10;10.50;;;7.10;85.70;;;;;;5034821;28;20028;-52
2021/01/04 05:46:44;;;;;;;24.35;11.40;;;7.10;85.80;;;;;;5034887;28;20033;-52
2021/01/04 05:49:28;;;;;;;25.95;11.30;;;7.10;85.80;;;;;;5034689;28;20021;-52
2021/01/04 05:51:54;;;;;;;25.58;10.00;;;7.10;85.80;;;;;;5034227;28;20040;-52
2021/01/04 05:54:36;;;;;;;26.90;11.10;;;7.10;85.80;;;;;;5034473;28;20025;-52
2021/01/04 05:57:10;;;;;;;21.27;10.77;;;7.10;85.80;;;;;;5034753;28;20087;-52
2021/01/04 05:59:57;;;;;;;20.90;8.90;;;7.10;85.80;;;;;;5034278;28;20017;-52
2021/01/04 06:02:27;;;;;;;26.15;9.85;;;7.10;86.50;;;;;;5034115;28;20128;-52
2021/01/04 06:04:53;;;;;;;24.00;10.50;;;7.10;86.50;;;;;;5034613;28;20025;-52
2021/01/04 06:07:19;;;;;;;31.70;11.15;;;7.10;85.80;;;;;;5017101;28;20402;-52
2021/01/04 06:09:57;;;;;;;24.67;9.93;;;7.10;85.80;;;;;;5017751;28;20025;-52
2021/01/04 06:12:45;;;;;;;28.98;10.73;;;7.10;85.80;;;;;;5034113;28;20087;-52
2021/01/04 06:15:11;;;;;;;22.58;9.07;;;7.10;85.80;;;;;;5034393;28;20033;-52
2021/01/04 06:17:41;;;;;;;25.55;11.00;;;7.10;85.80;;;;;;5034221;28;20348;-51
2021/01/04 06:20:31;;;;;;;20.40;10.18;;;7.10;85.80;;;;;;5034714;28;20026;-52
2021/01/04 06:22:56;;;;;;;21.50;10.43;;;7.10;85.80;;;;;;5030447;28;20041;-52
2021/01/04 06:25:32;;;;;;;24.38;9.27;;;7.10;85.80;;;;;;5022930;28;20516;-52
2021/01/04 06:28:02;;;;;;;19.88;8.98;;;7.10;85.70;;;;;;5024680;28;20041;-52
2021/01/04 06:30:34;;;;;;;21.85;10.25;;;7.10;85.80;;;;;;5024319;28;20018;-52
2021/01/04 06:33:21;;;;;;;28.52;10.45;;;7.10;85.80;;;;;;5024127;28;20036;-52
2021/01/04 06:35:47;;;;;;;21.45;9.00;;;7.10;85.80;;;;;;5025491;28;20374;-52
2021/01/04 06:38:30;;;;;;;25.92;10.55;;;7.10;85.90;;;;;;5022341;28;20554;-52
2021/01/04 06:40:56;;;;;;;24.58;10.00;;;7.10;85.80;;;;;;5021774;28;20036;-51
2021/01/04 06:43:29;;;;;;;25.92;10.50;;;7.10;85.90;;;;;;5013544;28;20084;-52
2021/01/04 06:46:10;;;;;;;26.85;10.32;;;7.10;85.80;;;;;;5013579;28;20109;-52
2021/01/04 06:48:45;;;;;;;32.10;9.77;;;7.10;85.80;;;;;;5012959;28;20398;-52
2021/01/04 06:52:14;;;;;;;25.08;10.02;;;7.10;85.80;;;;;;5022539;28;20061;-52
2021/01/04 06:54:58;;;;;;;26.10;10.93;;;7.10;85.90;;;;;;5050941;28;20094;-52
2021/01/04 06:57:54;;;;;;;20.02;9.48;;;7.10;85.90;;;;;;5033590;28;20021;-52
2021/01/04 07:00:38;;;;;;;26.10;9.60;;;7.10;85.80;;;;;;5016127;28;20022;-52
2021/01/04 07:03:39;;;;;;;19.98;9.23;;;7.10;85.80;;;;;;5013339;28;20033;-52
2021/01/04 07:06:34;;;;;;;26.05;9.38;;;7.10;85.80;;;;;;5020420;28;20030;-51
2021/01/04 07:09:24;;;;;;;28.50;12.10;;;7.10;85.80;;;;;;5005555;28;20038;-52
2021/01/04 07:12:32;;;;;;;21.77;10.27;;;7.10;85.90;;;;;;5032956;28;20079;-52
2021/01/04 07:15:15;;;;;;;23.63;8.95;;;7.10;85.90;;;;;;5083978;28;20044;-52
2021/01/04 07:18:00;;;;;;;20.60;9.15;;;7.10;85.90;;;;;;5033408;28;20021;-52
2021/01/04 07:20:47;;;;;;;23.20;9.93;;;7.10;85.90;;;;;;5033391;28;20056;-52
2021/01/04 07:23:32;;;;;;;22.40;10.00;;;7.10;85.90;;;;;;5033072;28;20106;-52
2021/01/04 07:26:19;;;;;;;18.27;9.07;;;7.10;85.90;;;;;;5032236;28;20022;-51
2021/01/04 07:29:03;;;;;;;25.77;9.52;;;7.10;85.90;;;;;;5033309;28;20067;-52
2021/01/04 07:31:53;;;;;;;25.98;10.57;;;7.10;85.90;;;;;;5031116;28;20109;-52
2021/01/04 07:34:38;;;;;;;25.13;9.75;;;7.10;85.90;;;;;;5013498;28;20028;-52
2021/01/04 07:37:26;;;;;;;23.23;9.02;;;7.10;85.90;;;;;;5013387;28;20029;-52
2021/01/04 07:40:03;;;;;;;25.38;9.13;;;7.10;85.80;;;;;;5021448;28;20026;-52
2021/01/04 07:42:37;;;;;;;20.20;9.52;;;7.10;85.80;;;;;;5020628;28;20033;-52
2021/01/04 07:45:24;;;;;;;24.35;9.68;;;7.10;85.90;;;;;;5023802;28;20022;-52
2021/01/04 07:48:07;;;;;;;26.88;9.65;;;7.10;85.90;;;;;;5019581;28;20448;-52
2021/01/04 07:50:33;;;;;;;20.60;8.75;;;7.10;85.90;;;;;;5024056;28;20022;-51
2021/01/04 07:53:32;;;;;;;15.98;8.30;;;7.10;85.90;;;;;;5019832;28;20030;-51
2021/01/04 07:56:08;;;;;;;24.15;9.38;;;7.10;85.90;;;;;;5018378;28;20447;-52
2021/01/04 07:59:08;;;;;;;23.60;8.43;;;7.10;85.80;;;;;;5020522;28;20055;-52
2021/01/04 08:01:42;;;;;;;21.95;9.50;;;7.10;85.80;;;;;;5023966;28;20022;-51
2021/01/04 08:04:34;;;;;;;21.50;9.98;;;7.10;85.80;;;;;;5021041;28;20489;-52
2021/01/04 08:07:06;;;;;;;20.73;9.70;;;7.10;85.90;;;;;;5023767;28;20085;-51
2021/01/04 08:09:58;;;;;;;25.92;9.93;;;7.10;85.90;;;;;;5033438;28;20025;-52
2021/01/04 08:12:43;;;;;;;22.38;8.63;;;7.10;85.90;;;;;;5016624;28;20431;-52
2021/01/04 08:15:40;;;;;;;28.17;9.60;;;7.10;85.90;;;;;;5016556;28;20038;-52
2021/01/04 08:18:07;;;;;;;18.85;9.60;;;7.10;85.90;;;;;;5016479;28;20041;-52
2021/01/04 08:20:35;;;;;;;25.73;11.40;;;7.10;85.90;;;;;;5017859;28;20470;-52
2021/01/04 08:23:16;;;;;;;25.65;10.82;;;7.10;85.80;;;;;;5016173;28;20198;-51
2021/01/04 08:25:47;;;;;;;27.77;11.13;;;7.10;85.90;;;;;;5028886;28;20091;-52
2021/01/04 08:28:34;;;;;;;25.52;11.32;;;7.10;85.90;;;;;;5016887;28;20087;-52
2021/01/04 08:31:24;;;;;;;34.28;11.13;;;7.10;85.90;;;;;;5016515;28;20060;-51
2021/01/04 08:34:04;;;;;;;25.98;11.18;;;7.10;85.80;;;;;;5016459;28;20110;-52
2021/01/04 08:36:42;;;;;;;26.27;10.82;;;7.10;85.80;;;;;;5016622;28;20028;-52
2021/01/04 08:39:20;;;;;;;30.75;11.80;;;7.20;85.90;;;;;;5017225;28;20059;-51
2021/01/04 08:42:01;;;;;;;31.98;11.50;;;7.10;85.80;;;;;;5022967;28;20363;-52
2021/01/04 08:44:26;;;;;;;26.83;10.93;;;7.10;85.80;;;;;;5030901;28;20121;-52
2021/01/04 08:46:53;;;;;;;27.08;11.48;;;7.20;85.80;;;;;;5016043;28;20422;-52
2021/01/04 08:49:19;;;;;;;25.80;10.88;;;7.10;85.80;;;;;;5019077;28;20029;-52
2021/01/04 08:51:46;;;;;;;30.52;12.18;;;7.10;85.80;;;;;;5035516;28;20501;-52
2021/01/04 08:54:20;;;;;;;23.98;10.23;;;7.10;85.80;;;;;;5032355;28;20065;-52
2021/01/04 08:56:49;;;;;;;27.00;10.65;;;7.10;85.90;;;;;;5034130;28;20030;-51
2021/01/04 08:59:18;;;;;;;23.98;10.95;;;7.10;85.80;;;;;;5025237;28;20367;-52
2021/01/04 09:02:07;;;;;;;32.05;11.73;;;7.10;85.80;;;;;;5018328;28;20180;-52
2021/01/04 09:04:38;;;;;;;21.92;10.15;;;7.10;85.80;;;;;;5015926;28;20432;-52
2021/01/04 09:07:17;;;;;;;29.35;11.13;;;7.10;85.80;;;;;;5023631;28;20462;-52
2021/01/04 09:09:51;;;;;;;25.98;11.38;;;7.10;85.80;;;;;;5024334;28;20040;-52
2021/01/04 09:12:37;;;;;;;23.23;10.20;;;7.20;85.80;;;;;;5024261;28;20030;-52
2021/01/04 09:15:10;;;;;;;24.77;9.77;;;7.10;85.80;;;;;;5025869;28;20032;-52
2021/01/04 09:18:01;;;;;;;29.92;12.80;;;7.10;85.80;;;;;;5025260;28;20033;-52
2021/01/04 09:20:47;;;;;;;19.52;9.52;;;7.20;85.80;;;;;;5015720;28;20037;-52
2021/01/04 09:23:19;;;;;;;22.95;10.05;;;7.10;85.80;;;;;;5018716;28;20038;-51
2021/01/04 09:25:57;;;;;;;24.45;11.32;;;7.10;85.80;;;;;;5028067;28;20087;-52
2021/01/04 09:28:23;;;;;;;23.88;10.27;;;7.20;85.80;;;;;;5024664;28;20544;-52
2021/01/04 09:30:50;;;;;;;25.70;11.63;;;7.20;85.80;;;;;;5024748;28;20577;-51
2021/01/04 09:33:19;;;;;;;28.23;11.52;;;7.20;85.70;;;;;;5030690;28;20030;-52
2021/01/04 09:35:45;;;;;;;28.48;11.25;;;7.20;85.80;;;;;;5025756;28;20109;-52
2021/01/04 09:38:23;;;;;;;24.30;10.57;;;7.20;85.80;;;;;;5016049;28;20501;-52
2021/01/04 09:40:52;;;;;;;27.38;11.68;;;7.20;85.80;;;;;;5028165;28;20034;-52
2021/01/04 09:43:22;;;;;;;28.40;12.88;;;7.20;85.80;;;;;;5026519;28;20131;-52
2021/01/04 09:45:48;;;;;;;29.25;12.00;;;7.20;85.80;;;;;;5034896;28;20060;-52
2021/01/04 09:48:33;;;;;;;28.95;11.95;;;7.10;85.70;;;;;;5032902;28;20104;-51
2021/01/04 09:51:04;;;;;;;22.55;10.15;;;7.10;85.70;;;;;;5016120;28;20033;-51
2021/01/04 09:53:37;;;;;;;26.50;11.23;;;7.10;85.80;;;;;;5024383;28;20026;-52
2021/01/04 09:56:13;;;;;;;27.92;11.93;;;7.10;85.80;;;;;;5023332;28;20365;-52
2021/01/04 09:58:40;;;;;;;27.23;10.80;;;7.10;85.70;;;;;;5023129;28;20022;-52
2021/01/04 10:01:16;;;;;;;29.38;12.07;;;7.20;85.70;;;;;;5024821;28;20018;-52
2021/01/04 10:03:54;;;;;;;32.63;13.75;;;7.10;85.60;;;;;;5024783;28;20065;-52
2021/01/04 10:06:22;;;;;;;32.28;13.85;;;7.10;85.60;;;;;;5021004;28;20064;-51
2021/01/04 10:08:48;;;;;;;35.58;12.93;;;7.10;85.60;;;;;;5020880;28;20067;-51
2021/01/04 10:11:21;;;;;;;30.58;10.65;;;7.10;85.70;;;;;;5020665;28;20022;-52
2021/01/04 10:13:47;;;;;;;27.45;11.68;;;7.10;85.70;;;;;;5021639;28;20056;-51
2021/01/04 10:16:23;;;;;;;33.50;13.82;;;7.10;85.70;;;;;;5020948;28;20025;-52
2021/01/04 10:19:13;;;;;;;31.13;13.07;;;7.10;85.70;;;;;;5026254;28;20112;-51
2021/01/04 10:21:56;;;;;;;28.00;11.57;;;7.10;85.70;;;;;;5022062;28;20116;-51
2021/01/04 10:24:31;;;;;;;34.53;12.98;;;7.10;85.70;;;;;;5027412;28;20052;-52
2021/01/04 10:27:02;;;;;;;30.33;12.63;;;7.10;85.60;;;;;;5023338;28;20017;-52
2021/01/04 10:29:28;;;;;;;24.92;11.52;;;7.10;86.40;;;;;;5024853;28;20108;-52
2021/01/04 10:32:12;;;;;;;31.25;13.10;;;7.10;85.60;;;;;;5023991;28;20348;-51
2021/01/04 10:34:43;;;;;;;34.22;11.77;;;7.10;85.60;;;;;;5024396;28;20108;-52
2021/01/04 10:37:44;;;;;;;33.83;11.65;;;7.10;85.70;;;;;;5024567;28;20029;-52
2021/01/04 10:40:14;;;;;;;28.17;12.57;;;7.10;85.60;;;;;;5023788;28;20037;-52
2021/01/04 10:42:42;;;;;;;30.30;12.50;;;7.10;85.50;;;;;;5022223;28;20048;-52
2021/01/04 10:45:21;;;;;;;28.13;11.07;;;7.10;85.60;;;;;;5023632;28;20080;-52
2021/01/04 10:48:00;;;;;;;31.42;13.43;;;7.10;85.60;;;;;;5028416;28;20036;-52
2021/01/04 10:50:32;;;;;;;23.10;10.40;;;7.10;85.60;;;;;;5033085;28;20030;-51
2021/01/04 10:53:00;;;;;;;33.53;13.63;;;7.10;85.50;;;;;;5033791;28;20030;-52
2021/01/04 10:55:29;;;;;;;33.85;12.65;;;7.10;85.50;;;;;;5033605;28;20447;-51
2021/01/04 10:58:06;;;;;;;31.38;12.25;;;7.10;85.60;;;;;;5031251;28;20418;-51
2021/01/04 11:00:34;;;;;;;32.67;12.13;;;7.10;85.50;;;;;;5024250;28;20057;-52
2021/01/04 11:03:12;;;;;;;22.17;9.77;;;7.10;85.50;;;;;;5022300;28;20039;-52
2021/01/04 11:05:41;;;;;;;30.80;11.63;;;7.10;85.50;;;;;;5031755;28;20014;-52
2021/01/04 11:08:15;;;;;;;34.08;10.48;;;7.10;85.40;;;;;;5024413;28;20392;-52
2021/01/04 11:10:58;;;;;;;24.15;11.07;;;7.10;85.50;;;;;;5022063;28;20514;-52
2021/01/04 11:13:34;;;;;;;29.35;10.80;;;7.10;85.50;;;;;;5025807;28;20021;-52
2021/01/04 11:16:14;;;;;;;28.73;12.25;;;7.10;85.40;;;;;;5024115;28;20030;-52
2021/01/04 11:18:52;;;;;;;34.20;12.20;;;7.10;85.50;;;;;;5021116;28;20018;-52
2021/01/04 11:21:31;;;;;;;31.38;11.45;;;7.10;85.50;;;;;;5023558;28;20078;-52
2021/01/04 11:23:57;;;;;;;24.63;11.23;;;7.10;85.50;;;;;;5023315;28;20040;-52
2021/01/04 11:26:22;;;;;;;26.75;11.45;;;7.10;85.50;;;;;;5023906;28;20104;-51
2021/01/04 11:28:48;;;;;;;26.23;12.32;;;7.10;85.60;;;;;;5022434;28;20068;-52
2021/01/04 11:31:13;;;;;;;31.23;12.57;;;7.10;85.40;;;;;;5022979;28;20515;-52
2021/01/04 11:33:39;;;;;;;22.70;10.40;;;7.10;85.40;;;;;;5023471;28;20029;-52
2021/01/04 11:36:05;;;;;;;26.95;11.10;;;7.10;85.40;;;;;;5024967;28;20049;-52
2021/01/04 11:38:31;;;;;;;27.50;11.98;;;7.10;85.30;;;;;;5029791;28;20040;-52
2021/01/04 11:40:57;;;;;;;28.88;13.80;;;7.10;85.40;;;;;;5037325;28;20022;-52
2021/01/04 11:43:22;;;;;;;23.00;9.27;;;7.10;85.30;;;;;;5036594;28;20037;-52
2021/01/04 11:45:48;;;;;;;28.80;13.27;;;7.10;85.40;;;;;;5037062;28;20029;-51
2021/01/04 11:48:14;;;;;;;27.70;12.30;;;7.10;85.40;;;;;;5026842;28;20470;-52
2021/01/04 11:50:39;;;;;;;27.13;11.20;;;7.10;85.40;;;;;;5018522;28;20336;-51
2021/01/04 11:53:05;;;;;;;29.00;11.68;;;7.10;85.30;;;;;;5029792;28;20025;-52
2021/01/04 11:55:32;;;;;;;27.40;10.82;;;7.10;85.30;;;;;;5024550;28;20033;-52
2021/01/04 11:57:57;;;;;;;25.98;11.32;;;7.10;85.40;;;;;;5023822;28;20406;-52
2021/01/04 12:00:24;;;;;;;29.95;11.93;;;7.10;85.40;;;;;;5025671;28;20532;-52
2021/01/04 12:02:49;;;;;;;26.65;11.35;;;7.10;85.30;;;;;;5027150;28;20062;-52
2021/01/04 12:05:16;;;;;;;31.17;13.02;;;7.10;85.30;;;;;;5018726;28;20443;-51
2021/01/04 12:07:42;;;;;;;32.17;14.07;;;7.10;85.40;;;;;;5017597;28;20112;-52
2021/01/04 12:10:09;;;;;;;27.70;11.90;;;7.00;85.30;;;;;;5025681;28;20515;-52
2021/01/04 12:12:35;;;;;;;30.40;12.10;;;7.10;85.40;;;;;;5026338;28;20068;-51
2021/01/04 12:15:01;;;;;;;13.38;6.80;;;7.10;85.30;;;;;;5027492;28;20026;-52
2021/01/04 12:17:26;;;;;;;27.67;11.82;;;7.10;85.30;;;;;;5033064;28;20030;-52
2021/01/04 12:19:52;;;;;;;25.38;10.40;;;7.10;85.30;;;;;;5016465;28;20030;-52
2021/01/04 12:22:18;;;;;;;30.15;10.93;;;7.10;85.30;;;;;;5016059;28;20066;-52
2021/01/04 12:24:47;;;;;;;29.70;11.90;;;7.10;85.30;;;;;;5025196;28;20052;-52
2021/01/04 12:27:15;;;;;;;36.58;14.23;;;7.10;85.20;;;;;;5035674;28;20047;-52
2021/01/04 12:29:48;;;;;;;28.85;11.93;;;7.10;85.30;;;;;;5036216;28;20036;-52
2021/01/04 12:32:16;;;;;;;28.95;12.23;;;7.10;85.30;;;;;;5028493;28;20026;-52
2021/01/04 12:34:42;;;;;;;27.98;12.63;;;7.10;85.40;;;;;;5015962;28;20366;-52
2021/01/04 12:37:08;;;;;;;30.35;11.10;;;7.10;85.30;;;;;;5017936;28;20156;-52
2021/01/04 12:39:35;;;;;;;32.15;13.50;;;7.10;85.30;;;;;;5036275;28;20121;-51
2021/01/04 12:42:00;;;;;;;30.95;11.38;;;7.10;85.20;;;;;;5035738;28;20508;-52
2021/01/04 12:44:26;;;;;;;32.50;13.30;;;7.10;85.30;;;;;;5024691;28;20034;-51
2021/01/04 12:46:52;;;;;;;33.72;13.85;;;7.10;85.30;;;;;;5021784;28;20464;-52
2021/01/04 12:49:20;;;;;;;26.42;10.93;;;7.10;85.30;;;;;;5022292;28;20451;-52
2021/01/04 12:51:47;;;;;;;31.45;12.73;;;7.10;85.20;;;;;;5021150;28;20029;-52
2021/01/04 12:54:16;;;;;;;30.27;11.18;;;7.10;85.20;;;;;;5024701;28;20081;-52
2021/01/04 12:56:47;;;;;;;30.75;12.68;;;7.10;85.20;;;;;;5025329;28;20025;-52
2021/01/04 12:59:15;;;;;;;36.30;12.82;;;7.10;85.30;;;;;;5024129;28;20040;-52
2021/01/04 13:01:41;;;;;;;33.40;14.13;;;7.10;85.20;;;;;;5027132;28;20033;-52
2021/01/04 13:04:07;;;;;;;27.95;11.30;;;7.10;85.30;;;;;;5027406;28;20469;-52
2021/01/04 13:06:33;;;;;;;28.63;10.93;;;7.00;85.30;;;;;;5025273;28;20024;-52
2021/01/04 13:09:00;;;;;;;25.85;10.65;;;7.00;85.30;;;;;;5021364;28;20327;-52
2021/01/04 13:11:27;;;;;;;33.33;13.38;;;7.10;85.30;;;;;;5025836;28;20083;-52
2021/01/04 13:13:52;;;;;;;36.35;13.30;;;7.10;85.30;;;;;;5025785;28;20032;-52
2021/01/04 13:16:18;;;;;;;30.35;10.40;;;7.10;85.30;;;;;;5024800;28;20018;-52
2021/01/04 13:18:44;;;;;;;30.17;12.45;;;7.10;85.40;;;;;;5021532;28;20018;-52
2021/01/04 13:21:16;;;;;;;29.10;11.90;;;7.10;85.40;;;;;;5025647;28;20347;-52
2021/01/04 13:23:41;;;;;;;27.20;10.85;;;7.10;85.40;;;;;;5024426;28;20026;-52